MSC Chiara — H3RT — position and weather

sailwx.info

Track history (hours):
 
Tides and Currents Weather Stations Pressure Air Temp Water Temp Dewpoint Dewpoint Depression Visibility Wind Speed Wind Dir Waves Ship Positions

MSC Chiara

Last reported at 2018-May-25 20:00 UTC. Time now 2018-May-25 20:21 UTC.
Position S 29°53' E 031°01'.

Length 197 m; draft 8.2 m.

Type: Ship (hazmat cat A). MMSI: 352398000.

Date/timePositionNaut miles runAvg speedWind from/ knotsBaromVisibWave heightAir tempDewpointWater temp
2018-May-25 20:00S 29°53' E 031°01'0 0.0
2018-May-25 19:30S 29°53' E 031°01'0 0.0
2018-May-25 19:00S 29°53' E 031°01'0 0.0
2018-May-25 18:30S 29°53' E 031°01'0 0.0
2018-May-25 18:00S 29°53' E 031°01'0 0.0
2018-May-25 17:30S 29°53' E 031°01'0 0.0
2018-May-25 17:00S 29°53' E 031°01'0 0.0
2018-May-25 16:30S 29°53' E 031°01'0 0.0
2018-May-25 16:00S 29°53' E 031°01'0 0.0
2018-May-25 15:30S 29°53' E 031°01'0 0.0
2018-May-25 15:01S 29°53' E 031°01'0 0.0
2018-May-25 14:31S 29°53' E 031°01'0 0.0
2018-May-25 14:00S 29°53' E 031°01'0 0.0
2018-May-25 13:30S 29°53' E 031°01'0 0.0
2018-May-25 13:00S 29°53' E 031°01'0 0.0
2018-May-25 12:31S 29°53' E 031°01'0 0.0
2018-May-25 12:00S 29°53' E 031°01'0 0.0
2018-May-25 11:31S 29°53' E 031°01'0 0.0
2018-May-25 11:01S 29°53' E 031°01'0 0.0
2018-May-25 10:31S 29°53' E 031°01'0 0.2
2018-May-25 10:01S 29°53' E 031°01'2 4.4
2018-May-25 09:30S 29°52' E 031°04'4 8.4
2018-May-25 09:01S 29°49' E 031°07'1 2.8
2018-May-25 08:31S 29°49' E 031°09'1 2.4
2018-May-25 08:01S 29°50' E 031°08'2 3.7
2018-May-25 07:30S 29°48' E 031°08'2 4.0
2018-May-25 07:00S 29°47' E 031°10'2 3.5
2018-May-25 06:30S 29°47' E 031°12'2 3.4
2018-May-25 06:01S 29°46' E 031°14'2 3.2
2018-May-25 05:30S 29°45' E 031°15'4 7.9
2018-May-25 05:01S 29°42' E 031°19'5 9.0
2018-May-25 04:31S 29°39' E 031°22'1 1.5
2018-May-25 04:01S 29°39' E 031°22'1 2.4
2018-May-25 03:29S 29°40' E 031°20'1 2.2
2018-May-25 03:01S 29°40' E 031°19'1 2.1
2018-May-25 02:30S 29°41' E 031°18'1 1.9
2018-May-25 02:00S 29°42' E 031°17'1 1.8
2018-May-25 01:30S 29°42' E 031°17'1 1.6
2018-May-25 01:00S 29°43' E 031°17'1 1.5
2018-May-25 00:31S 29°44' E 031°16'1 1.3
2018-May-25 00:01S 29°44' E 031°16'0 0.8
2018-May-24 23:30S 29°45' E 031°15'4 7.6
2018-May-24 23:00S 29°42' E 031°19'4 7.1
2018-May-24 22:31S 29°40' E 031°22'1 1.3
2018-May-24 22:00S 29°41' E 031°22'1 1.3
2018-May-24 21:30S 29°41' E 031°21'1 1.3
2018-May-24 20:59S 29°42' E 031°21'1 1.3
2018-May-24 20:30S 29°42' E 031°20'1 1.2
2018-May-24 20:00S 29°42' E 031°20'1 1.1
2018-May-24 19:30S 29°43' E 031°19'1 1.0
2018-May-24 19:00S 29°43' E 031°19'0 1.0
2018-May-24 18:30S 29°43' E 031°18'0 1.0
2018-May-24 18:00S 29°43' E 031°18'0 0.9
2018-May-24 17:30S 29°43' E 031°17'0 0.9
2018-May-24 17:00S 29°44' E 031°17'0 0.9
2018-May-24 16:30S 29°44' E 031°16'0 0.7
2018-May-24 16:00S 29°44' E 031°16'0 0.8
2018-May-24 15:29S 29°44' E 031°16'4 8.5
2018-May-24 15:00S 29°40' E 031°17'3 6.8
2018-May-24 14:30S 29°37' E 031°17'0 0.4
2018-May-24 14:00S 29°37' E 031°17'0 0.4
2018-May-24 13:30S 29°37' E 031°17'2 0.4
2018-May-24 09:00S 29°39' E 031°18'0 0.4
2018-May-24 08:30S 29°39' E 031°18'0 0.4
2018-May-24 08:00S 29°39' E 031°18'0 0.6
2018-May-24 07:30S 29°39' E 031°18'0 0.5
2018-May-24 07:00S 29°40' E 031°18'0 0.5
2018-May-24 06:30S 29°40' E 031°18'0 0.5
2018-May-24 06:00S 29°40' E 031°18'0 0.6
2018-May-24 05:29S 29°40' E 031°18'0 0.8
2018-May-24 05:00S 29°41' E 031°18'1 1.6
2018-May-24 04:30S 29°41' E 031°19'611.2
2018-May-24 04:01S 29°37' E 031°24'713.2
2018-May-24 03:30S 29°33' E 031°30'713.2
2018-May-24 03:00S 29°29' E 031°36'713.4
2018-May-24 02:30S 29°25' E 031°42'613.1
2018-May-24 02:00S 29°21' E 031°48'713.1
2018-May-24 01:30S 29°17' E 031°54'713.1
2018-May-24 01:00S 29°13' E 032°00'714.5
2018-May-24 00:30S 29°09' E 032°07'816.3
2018-May-24 00:00S 29°04' E 032°14'1016.1
2018-May-23 23:24S 28°58' E 032°23'716.5
2018-May-23 23:00S 28°52' E 032°27'  
Track history (hours):
 
Tides and Currents Weather Stations Pressure Air Temp Water Temp Dewpoint Dewpoint Depression Visibility Wind Speed Wind Dir Waves Ship Positions

MSC Chiara

Last reported at 2018-May-25 20:00 UTC. Time now 2018-May-25 20:21 UTC.
Position S 29°53' E 031°01'.

Length 197 m; draft 8.2 m.

Type: Ship (hazmat cat A). MMSI: 352398000.

Date/timePositionNaut miles runAvg speedWind from/ knotsBaromVisibWave heightAir tempDewpointWater temp
2018-May-25 20:00S 29°53' E 031°01'0 0.0
2018-May-25 19:30S 29°53' E 031°01'0 0.0
2018-May-25 19:00S 29°53' E 031°01'0 0.0
2018-May-25 18:30S 29°53' E 031°01'0 0.0
2018-May-25 18:00S 29°53' E 031°01'0 0.0
2018-May-25 17:30S 29°53' E 031°01'0 0.0
2018-May-25 17:00S 29°53' E 031°01'0 0.0
2018-May-25 16:30S 29°53' E 031°01'0 0.0
2018-May-25 16:00S 29°53' E 031°01'0 0.0
2018-May-25 15:30S 29°53' E 031°01'0 0.0
2018-May-25 15:01S 29°53' E 031°01'0 0.0
2018-May-25 14:31S 29°53' E 031°01'0 0.0
2018-May-25 14:00S 29°53' E 031°01'0 0.0
2018-May-25 13:30S 29°53' E 031°01'0 0.0
2018-May-25 13:00S 29°53' E 031°01'0 0.0
2018-May-25 12:31S 29°53' E 031°01'0 0.0
2018-May-25 12:00S 29°53' E 031°01'0 0.0
2018-May-25 11:31S 29°53' E 031°01'0 0.0
2018-May-25 11:01S 29°53' E 031°01'0 0.0
2018-May-25 10:31S 29°53' E 031°01'0 0.2
2018-May-25 10:01S 29°53' E 031°01'2 4.4
2018-May-25 09:30S 29°52' E 031°04'4 8.4
2018-May-25 09:01S 29°49' E 031°07'1 2.8
2018-May-25 08:31S 29°49' E 031°09'1 2.4
2018-May-25 08:01S 29°50' E 031°08'2 3.7
2018-May-25 07:30S 29°48' E 031°08'2 4.0
2018-May-25 07:00S 29°47' E 031°10'2 3.5
2018-May-25 06:30S 29°47' E 031°12'2 3.4
2018-May-25 06:01S 29°46' E 031°14'2 3.2
2018-May-25 05:30S 29°45' E 031°15'4 7.9
2018-May-25 05:01S 29°42' E 031°19'5 9.0
2018-May-25 04:31S 29°39' E 031°22'1 1.5
2018-May-25 04:01S 29°39' E 031°22'1 2.4
2018-May-25 03:29S 29°40' E 031°20'1 2.2
2018-May-25 03:01S 29°40' E 031°19'1 2.1
2018-May-25 02:30S 29°41' E 031°18'1 1.9
2018-May-25 02:00S 29°42' E 031°17'1 1.8
2018-May-25 01:30S 29°42' E 031°17'1 1.6
2018-May-25 01:00S 29°43' E 031°17'1 1.5
2018-May-25 00:31S 29°44' E 031°16'1 1.3
2018-May-25 00:01S 29°44' E 031°16'0 0.8
2018-May-24 23:30S 29°45' E 031°15'4 7.6
2018-May-24 23:00S 29°42' E 031°19'4 7.1
2018-May-24 22:31S 29°40' E 031°22'1 1.3
2018-May-24 22:00S 29°41' E 031°22'1 1.3
2018-May-24 21:30S 29°41' E 031°21'1 1.3
2018-May-24 20:59S 29°42' E 031°21'1 1.3
2018-May-24 20:30S 29°42' E 031°20'1 1.2
2018-May-24 20:00S 29°42' E 031°20'1 1.1
2018-May-24 19:30S 29°43' E 031°19'1 1.0
2018-May-24 19:00S 29°43' E 031°19'0 1.0
2018-May-24 18:30S 29°43' E 031°18'0 1.0
2018-May-24 18:00S 29°43' E 031°18'0 0.9
2018-May-24 17:30S 29°43' E 031°17'0 0.9
2018-May-24 17:00S 29°44' E 031°17'0 0.9
2018-May-24 16:30S 29°44' E 031°16'0 0.7
2018-May-24 16:00S 29°44' E 031°16'0 0.8
2018-May-24 15:29S 29°44' E 031°16'4 8.5
2018-May-24 15:00S 29°40' E 031°17'3 6.8
2018-May-24 14:30S 29°37' E 031°17'0 0.4
2018-May-24 14:00S 29°37' E 031°17'0 0.4
2018-May-24 13:30S 29°37' E 031°17'2 0.4
2018-May-24 09:00S 29°39' E 031°18'0 0.4
2018-May-24 08:30S 29°39' E 031°18'0 0.4
2018-May-24 08:00S 29°39' E 031°18'0 0.6
2018-May-24 07:30S 29°39' E 031°18'0 0.5
2018-May-24 07:00S 29°40' E 031°18'0 0.5
2018-May-24 06:30S 29°40' E 031°18'0 0.5
2018-May-24 06:00S 29°40' E 031°18'0 0.6
2018-May-24 05:29S 29°40' E 031°18'0 0.8
2018-May-24 05:00S 29°41' E 031°18'1 1.6
2018-May-24 04:30S 29°41' E 031°19'611.2
2018-May-24 04:01S 29°37' E 031°24'713.2
2018-May-24 03:30S 29°33' E 031°30'713.2
2018-May-24 03:00S 29°29' E 031°36'713.4
2018-May-24 02:30S 29°25' E 031°42'613.1
2018-May-24 02:00S 29°21' E 031°48'713.1
2018-May-24 01:30S 29°17' E 031°54'713.1
2018-May-24 01:00S 29°13' E 032°00'714.5
2018-May-24 00:30S 29°09' E 032°07'816.3
2018-May-24 00:00S 29°04' E 032°14'1016.1
2018-May-23 23:24S 28°58' E 032°23'716.5
2018-May-23 23:00S 28°52' E 032°27'  

Dump ship's entire track history